עמוד ראשי
METAR-TAF:

METAR-TAF

שדות תעופה :

Culiacán, מקסיקו

קו רוחב: 24-49N, קו אורך: 107-24W, גובה: 39מטר

תצפית מזג אוויר נוכחית

הדו"ח נערך לפני 6 שעות ו 3דקות, בשעה 04:44 UTC
רוח 3קשר מכיוון דרום
טמפרטורת 28 צלסיוס
לחות 74%
לחץ 1010 hPa
ראות: 12.9קילומטר
מעט עננים בגובה 13000רגל

METAR: MMCL 150444Z 18003KT 8SM FEW130 28/23 A2983 RMK 8/030 HZY

זמן: 04:47 (10:47 UTC)

תחזית

הדו"ח נערך לפני 5 שעות ו 55דקות, בשעה 04:52 UTC
תחזית בתוקף מ 15 ב 06 UTC עד 16 ב 06 UTC
רוח 5קשר מכיוון דרום/דרום-מערב
ראות: 10קילומטר
עננים בינוניים בגובה 2000רגל
זמנית מ -
15 ב 08 UTC עד 15 ב 12 UTC
ראות: 4.8קילומטר
עננים בינוניים בגובה 1000רגל
אד
מ 15 ב 1200UTC
רוח 5קשר מכיוון דרום-מערב
ראות: 10קילומטר
עננים פזורים בגובה 2000רגל
מ 15 ב 1700UTC
רוח 10קשר מכיוון דרום-מערב
ראות: 10קילומטר
עננים פזורים בגובה 2000רגל
מ 16 ב 0200UTC
רוח 5קשר מכיוון דרום/דרום-מערב
ראות: 10קילומטר
עננים פזורים בגובה 2000רגל

TAF: MMCL 150452Z 1506/1606 20005KT P6SM BKN020 TEMPO 1508/1512 3SM BR BKN010 FM151200 22005KT P6SM SCT020 FM151700 22010KT P6SM SCT020 FM160200 20005KT P6SM SCT020

תצפיות ותחזיות מזג אוויר לגבי יותר מ- 4,000 שדות תעופה ברחבי העולם. דוחות METAR ו- TAF.

התחנות הזמינות מסומנות בנקודות צהובות ואדומות על גבי המפה.

העבר את העכבר לנקודה הצבעונית על מנת לראות את שם התחנה.

לאחר מכן, לחץ כדי לראות את תוכן ואת תחזיות מזג האוויר.

כדי לשנות את המפה: לחץ על הכפתורים הירוקים עם הפלוס השחור כדי להתקרב; על הכפתור הירוק עם המקף כדי להתרחק; או בחיצים הירוקים למפות סמוכות.


METAR-TAF: